createdAt,value
2023-04-21T00:00:53.793Z,10.55
2023-04-21T00:03:23.738Z,10.68
2023-04-21T00:05:51.017Z,2.13
2023-04-21T00:08:18.727Z,1.98
2023-04-21T00:10:46.806Z,3.65
2023-04-21T00:13:14.178Z,1.90
2023-04-21T00:15:41.169Z,2.10
2023-04-21T00:18:08.240Z,7.72
2023-04-21T00:20:36.098Z,1.83
2023-04-21T00:23:03.521Z,1.83
2023-04-21T00:25:30.290Z,4.68
2023-04-21T00:27:56.959Z,4.05
2023-04-21T00:30:23.627Z,5.15
2023-04-21T00:32:50.272Z,7.60
2023-04-21T00:35:16.984Z,5.10
2023-04-21T00:37:43.661Z,2.70
2023-04-21T00:40:10.782Z,1.88
2023-04-21T00:42:37.483Z,6.53
2023-04-21T00:45:05.131Z,4.88
2023-04-21T00:47:32.074Z,2.88
2023-04-21T00:49:59.454Z,3.88
2023-04-21T00:52:26.951Z,2.17
2023-04-21T00:54:53.930Z,2.30
2023-04-21T00:57:21.050Z,3.58
2023-04-21T00:59:47.825Z,4.07
2023-04-21T01:02:18.860Z,1.95
2023-04-21T01:04:45.762Z,5.28
2023-04-21T01:07:12.778Z,13.43
2023-04-21T01:09:39.576Z,10.20
2023-04-21T01:12:11.497Z,3.58
2023-04-21T01:14:39.600Z,14.65
2023-04-21T01:17:07.584Z,2.47
2023-04-21T01:19:40.403Z,3.55
2023-04-21T01:22:10.868Z,4.45
2023-04-21T01:24:48.664Z,4.05
2023-04-21T01:27:18.731Z,2.92
2023-04-21T01:29:46.987Z,6.53
2023-04-21T01:32:17.149Z,8.68
2023-04-21T01:34:44.629Z,7.00
2023-04-21T01:37:13.710Z,10.50
2023-04-21T01:39:42.140Z,11.57
2023-04-21T01:42:09.083Z,11.88
2023-04-21T01:44:36.287Z,12.45
2023-04-21T01:47:03.333Z,6.78
2023-04-21T01:49:29.940Z,11.82
2023-04-21T01:51:56.509Z,13.80
2023-04-21T01:54:23.153Z,12.90
2023-04-21T01:56:49.866Z,11.35
2023-04-21T01:59:17.211Z,12.95
2023-04-21T02:01:44.032Z,6.97
2023-04-21T02:04:11.199Z,8.43
2023-04-21T02:06:37.919Z,9.77
2023-04-21T02:09:04.577Z,11.30
2023-04-21T02:11:31.171Z,11.43
2023-04-21T02:13:57.801Z,7.40
2023-04-21T02:16:27.459Z,12.00
2023-04-21T02:18:56.765Z,10.68
2023-04-21T02:21:24.696Z,8.23
2023-04-21T02:23:51.849Z,5.80
2023-04-21T02:26:19.158Z,12.80
2023-04-21T02:28:45.845Z,11.32
2023-04-21T02:31:12.523Z,11.48
2023-04-21T02:33:39.224Z,11.30
2023-04-21T02:36:06.255Z,12.10
2023-04-21T02:38:32.913Z,13.13
2023-04-21T02:40:59.572Z,12.80
2023-04-21T02:43:26.700Z,12.75
2023-04-21T02:45:53.340Z,12.70
2023-04-21T02:48:22.898Z,13.15
2023-04-21T02:50:50.593Z,12.52
2023-04-21T02:53:17.175Z,12.85
2023-04-21T02:55:43.997Z,10.55
2023-04-21T02:58:10.994Z,11.50
2023-04-21T03:00:37.887Z,12.02
2023-04-21T03:03:04.877Z,13.55
2023-04-21T03:05:31.663Z,12.45
2023-04-21T03:07:58.275Z,11.32
2023-04-21T03:10:24.985Z,10.63
2023-04-21T03:12:51.579Z,11.10
2023-04-21T03:15:19.397Z,13.00
2023-04-21T03:17:46.025Z,11.85
2023-04-21T03:20:12.862Z,12.50
2023-04-21T03:22:39.792Z,12.38
2023-04-21T03:25:07.590Z,13.30
2023-04-21T03:27:34.918Z,10.95
2023-04-21T03:30:01.555Z,10.32
2023-04-21T03:32:28.491Z,11.63
2023-04-21T03:34:55.182Z,8.95
2023-04-21T03:37:21.841Z,11.02
2023-04-21T03:39:48.610Z,11.40
2023-04-21T03:42:15.349Z,12.10
2023-04-21T03:44:41.972Z,11.13
2023-04-21T03:47:08.544Z,8.25
2023-04-21T03:49:35.645Z,10.00
2023-04-21T03:52:02.492Z,3.95
2023-04-21T03:54:29.149Z,4.75
2023-04-21T03:56:55.772Z,4.68
2023-04-21T03:59:22.405Z,8.18
2023-04-21T04:01:49.160Z,9.45
2023-04-21T04:04:16.427Z,5.97
2023-04-21T04:06:43.142Z,4.00
2023-04-21T04:09:09.694Z,3.28
2023-04-21T04:11:36.328Z,5.88
2023-04-21T04:14:02.994Z,9.85
2023-04-21T04:16:29.903Z,9.88
2023-04-21T04:18:56.780Z,11.48
2023-04-21T04:21:23.425Z,10.95
2023-04-21T04:23:52.270Z,10.98
2023-04-21T04:26:19.134Z,10.85
2023-04-21T04:28:46.147Z,11.13
2023-04-21T04:31:13.528Z,11.07
2023-04-21T04:33:44.314Z,16.65
2023-04-21T04:36:11.960Z,16.50
2023-04-21T04:41:12.680Z,11.70
2023-04-21T04:43:39.312Z,12.15
2023-04-21T04:46:07.497Z,11.85
2023-04-21T04:48:34.172Z,11.25
2023-04-21T04:51:00.989Z,10.80
2023-04-21T04:53:30.369Z,11.70
2023-04-21T04:55:58.536Z,11.30
2023-04-21T04:58:25.262Z,11.13
2023-04-21T05:00:51.930Z,10.85
2023-04-21T05:03:18.718Z,10.88
2023-04-21T05:05:46.153Z,12.02
2023-04-21T05:08:13.255Z,11.73
2023-04-21T05:10:40.378Z,11.68
2023-04-21T05:13:07.011Z,12.55
2023-04-21T05:15:33.592Z,11.13
2023-04-21T05:18:00.259Z,12.25
2023-04-21T05:20:26.876Z,10.82
2023-04-21T05:22:53.445Z,12.60
2023-04-21T05:25:20.064Z,12.30
2023-04-21T05:27:46.656Z,9.25
2023-04-21T05:30:13.291Z,5.05
2023-04-21T05:32:39.993Z,4.22
2023-04-21T05:35:07.145Z,5.43
2023-04-21T05:37:33.766Z,10.10
2023-04-21T05:40:00.507Z,6.57
2023-04-21T05:42:27.139Z,9.55
2023-04-21T05:44:54.105Z,9.35
2023-04-21T05:47:20.746Z,10.10
2023-04-21T05:49:50.344Z,7.38
2023-04-21T05:52:17.749Z,8.52
2023-04-21T05:54:44.622Z,8.73
2023-04-21T05:57:11.227Z,6.53
2023-04-21T05:59:37.919Z,4.72
2023-04-21T06:02:04.695Z,3.00
2023-04-21T06:04:31.505Z,4.15
2023-04-21T06:06:58.394Z,3.10
2023-04-21T06:09:25.159Z,5.20
2023-04-21T06:11:51.770Z,4.20
2023-04-21T06:14:18.983Z,8.30
2023-04-21T06:16:45.922Z,7.70
2023-04-21T06:19:12.599Z,4.38
2023-04-21T06:21:39.194Z,3.08
2023-04-21T06:24:06.110Z,3.95
2023-04-21T06:26:32.767Z,5.10
2023-04-21T06:28:59.383Z,11.00
2023-04-21T06:31:26.154Z,8.75
2023-04-21T06:33:52.754Z,8.90
2023-04-21T06:36:21.649Z,7.65
2023-04-21T06:38:48.667Z,6.47
2023-04-21T06:41:15.271Z,4.97
2023-04-21T06:43:41.896Z,4.20
2023-04-21T06:46:08.533Z,12.13
2023-04-21T06:48:35.161Z,3.15
2023-04-21T06:51:02.593Z,6.93
2023-04-21T06:53:29.318Z,6.50
2023-04-21T06:55:56.205Z,6.53
2023-04-21T06:58:23.313Z,11.55
2023-04-21T07:00:50.100Z,11.90
2023-04-21T07:03:16.849Z,9.60
2023-04-21T07:05:43.451Z,11.15
2023-04-21T07:08:10.032Z,8.70
2023-04-21T07:10:36.707Z,10.45
2023-04-21T07:13:03.349Z,5.30
2023-04-21T07:15:29.947Z,3.25
2023-04-21T07:17:58.725Z,3.20
2023-04-21T07:20:25.572Z,6.43
2023-04-21T07:22:52.172Z,6.90
2023-04-21T07:25:18.824Z,4.85
2023-04-21T07:27:45.669Z,3.03
2023-04-21T07:30:12.767Z,3.33
2023-04-21T07:32:39.779Z,3.28
2023-04-21T07:35:07.106Z,3.20
2023-04-21T07:37:33.713Z,5.75
2023-04-21T07:40:00.364Z,3.35
2023-04-21T07:42:27.002Z,5.68
2023-04-21T07:44:54.762Z,3.00
2023-04-21T07:47:21.719Z,3.35
2023-04-21T07:49:48.501Z,5.07
2023-04-21T07:52:15.225Z,2.75
2023-04-21T07:54:41.949Z,5.72
2023-04-21T07:57:08.767Z,4.35
2023-04-21T07:59:35.522Z,2.88
2023-04-21T08:02:02.402Z,2.90
2023-04-21T08:04:29.329Z,4.60
2023-04-21T08:06:56.185Z,3.38
2023-04-21T08:09:23.312Z,8.27
2023-04-21T08:11:50.007Z,6.82
2023-04-21T08:14:16.994Z,4.07
2023-04-21T08:16:44.015Z,7.07
2023-04-21T08:19:10.826Z,3.05
2023-04-21T08:21:37.510Z,6.90
2023-04-21T08:24:04.360Z,7.75
2023-04-21T08:26:31.184Z,6.35
2023-04-21T08:28:57.796Z,7.05
2023-04-21T08:31:24.463Z,3.92
2023-04-21T08:34:01.272Z,6.78
2023-04-21T08:36:30.210Z,3.95
2023-04-21T08:38:57.830Z,12.55
2023-04-21T08:41:25.691Z,3.10
2023-04-21T08:43:52.419Z,7.47
2023-04-21T08:46:19.380Z,3.20
2023-04-21T08:48:47.286Z,4.50
2023-04-21T08:51:20.861Z,3.25
2023-04-21T08:53:47.503Z,4.30
2023-04-21T08:56:14.704Z,5.88
2023-04-21T08:58:41.628Z,2.95
2023-04-21T09:01:08.391Z,3.22
2023-04-21T09:03:35.197Z,2.95
2023-04-21T09:06:05.459Z,5.00
2023-04-21T09:08:32.861Z,3.17
2023-04-21T09:11:01.377Z,3.13
2023-04-21T09:13:36.020Z,3.30
2023-04-21T09:16:08.249Z,3.15
2023-04-21T09:18:37.314Z,3.88
2023-04-21T09:21:12.455Z,3.35
2023-04-21T09:23:50.929Z,9.00
2023-04-21T09:26:20.225Z,12.57
2023-04-21T09:28:48.763Z,6.68
2023-04-21T09:31:20.372Z,3.97
2023-04-21T09:36:23.540Z,2.72
2023-04-21T09:41:33.991Z,4.72
2023-04-21T09:44:01.564Z,3.13
2023-04-21T09:46:32.067Z,5.43
2023-04-21T09:49:01.295Z,10.43
2023-04-21T09:51:45.963Z,3.20
2023-04-21T09:54:30.082Z,5.65
2023-04-21T09:57:02.081Z,3.03
2023-04-21T09:59:42.227Z,3.58
2023-04-21T10:02:11.045Z,3.35
2023-04-21T10:04:39.837Z,3.20
2023-04-21T10:07:07.446Z,11.15
2023-04-21T10:09:41.632Z,3.67
2023-04-21T10:12:09.977Z,2.95
2023-04-21T10:14:36.707Z,3.05
2023-04-21T10:17:08.382Z,3.70
2023-04-21T10:19:39.809Z,3.30
2023-04-21T10:22:08.688Z,2.92
2023-04-21T10:24:40.225Z,2.90
2023-04-21T10:27:11.154Z,2.83
2023-04-21T10:29:54.778Z,3.40
2023-04-21T10:32:42.411Z,3.40
2023-04-21T10:35:49.458Z,2.75
2023-04-21T10:38:43.480Z,2.03
2023-04-21T10:41:30.565Z,3.10
2023-04-21T10:44:01.364Z,3.10
2023-04-21T10:46:39.509Z,3.70
2023-04-21T10:49:10.904Z,2.95
2023-04-21T10:51:59.306Z,2.90
2023-04-21T10:54:27.287Z,2.88
2023-04-21T10:56:55.440Z,1.45
2023-04-21T10:59:22.712Z,2.08
2023-04-21T11:01:49.391Z,1.98
2023-04-21T11:04:17.878Z,2.53
2023-04-21T11:07:06.324Z,3.00
2023-04-21T11:09:32.957Z,3.95
2023-04-21T11:12:04.664Z,3.58
2023-04-21T11:14:31.440Z,6.38
2023-04-21T11:16:58.191Z,4.10
2023-04-21T11:19:25.978Z,1.05
2023-04-21T11:21:55.689Z,0.82
2023-04-21T11:24:22.373Z,3.10
2023-04-21T11:26:49.286Z,2.90
2023-04-21T11:29:16.729Z,3.40
2023-04-21T11:31:46.674Z,6.45
2023-04-21T11:34:15.476Z,2.53
2023-04-21T11:36:46.353Z,2.33
2023-04-21T11:39:16.378Z,7.00
2023-04-21T11:41:44.402Z,3.70
2023-04-21T11:44:12.133Z,4.15
2023-04-21T11:46:46.495Z,3.83
2023-04-21T11:49:15.365Z,2.97
2023-04-21T11:51:43.916Z,3.67
2023-04-21T11:54:14.588Z,3.42
2023-04-21T11:56:43.224Z,3.03
2023-04-21T11:59:10.978Z,2.88
2023-04-21T12:01:49.023Z,1.75
2023-04-21T12:04:24.252Z,3.50
2023-04-21T12:07:02.360Z,3.60
2023-04-21T12:09:30.341Z,3.58
2023-04-21T12:11:58.812Z,3.28
2023-04-21T12:14:28.745Z,3.15
2023-04-21T12:16:57.946Z,1.13
2023-04-21T12:19:41.833Z,3.72
2023-04-21T12:22:13.057Z,7.63
2023-04-21T12:24:39.993Z,9.30
2023-04-21T12:27:07.299Z,3.25
2023-04-21T12:29:35.686Z,2.67
2023-04-21T12:32:02.538Z,2.28
2023-04-21T12:34:29.356Z,2.65
2023-04-21T12:36:56.012Z,2.90
2023-04-21T12:39:22.636Z,3.30
2023-04-21T12:41:49.262Z,5.68
2023-04-21T12:44:15.916Z,1.60
2023-04-21T12:46:42.662Z,2.95
2023-04-21T12:49:09.976Z,3.70
2023-04-21T12:51:37.066Z,1.83
2023-04-21T12:54:03.803Z,1.92
2023-04-21T12:56:30.512Z,3.22
2023-04-21T12:58:58.103Z,3.67
2023-04-21T13:01:25.107Z,3.17
2023-04-21T13:03:51.869Z,2.00
2023-04-21T13:06:18.627Z,3.60
2023-04-21T13:08:45.253Z,10.43
2023-04-21T13:11:11.822Z,3.80
2023-04-21T13:13:38.895Z,3.08
2023-04-21T13:16:05.902Z,3.40
2023-04-21T13:18:34.755Z,3.00
2023-04-21T13:21:01.769Z,3.53
2023-04-21T13:23:29.039Z,2.47
2023-04-21T13:25:55.809Z,1.92
2023-04-21T13:28:22.782Z,4.18
2023-04-21T13:30:51.873Z,3.13
2023-04-21T13:33:19.257Z,2.95
2023-04-21T13:35:45.924Z,3.35
2023-04-21T13:38:12.842Z,2.25
2023-04-21T13:40:39.575Z,1.98
2023-04-21T13:43:06.266Z,4.20
2023-04-21T13:45:33.129Z,2.10
2023-04-21T13:47:59.829Z,3.50
2023-04-21T13:50:26.591Z,4.22
2023-04-21T13:52:53.200Z,3.67
2023-04-21T13:55:20.819Z,3.03
2023-04-21T13:57:47.490Z,4.60
2023-04-21T14:00:14.932Z,4.00
2023-04-21T14:02:42.032Z,3.08
2023-04-21T14:05:09.093Z,5.78
2023-04-21T14:07:38.115Z,4.40
2023-04-21T14:10:05.089Z,3.65
2023-04-21T14:12:31.744Z,5.03
2023-04-21T14:14:58.343Z,5.10
2023-04-21T14:17:25.365Z,4.60
2023-04-21T14:19:53.049Z,3.35
2023-04-21T14:22:21.761Z,3.60
2023-04-21T14:24:48.402Z,2.97
2023-04-21T14:27:15.101Z,4.95
2023-04-21T14:29:41.873Z,6.10
2023-04-21T14:32:08.563Z,3.67
2023-04-21T14:34:35.656Z,3.60
2023-04-21T14:37:02.314Z,3.90
2023-04-21T14:39:28.919Z,5.03
2023-04-21T14:41:55.573Z,4.40
2023-04-21T14:44:22.134Z,6.18
2023-04-21T14:47:00.900Z,4.85
2023-04-21T14:49:33.092Z,3.60
2023-04-21T14:51:59.913Z,5.18
2023-04-21T14:54:26.540Z,3.80
2023-04-21T14:57:00.418Z,3.50
2023-04-21T14:59:33.925Z,3.80
2023-04-21T15:02:00.865Z,2.95
2023-04-21T15:04:27.999Z,5.00
2023-04-21T15:06:55.980Z,3.72
2023-04-21T15:09:22.654Z,2.90
2023-04-21T15:11:49.325Z,3.63
2023-04-21T15:14:16.131Z,4.05
2023-04-21T15:16:42.752Z,4.72
2023-04-21T15:19:09.463Z,5.00
2023-04-21T15:21:36.090Z,3.63
2023-04-21T15:24:03.152Z,4.70
2023-04-21T15:26:30.311Z,3.05
2023-04-21T15:28:57.732Z,4.45
2023-04-21T15:31:24.435Z,4.28
2023-04-21T15:33:51.334Z,4.85
2023-04-21T15:36:18.010Z,3.85
2023-04-21T15:38:44.999Z,4.05
2023-04-21T15:41:11.787Z,3.08
2023-04-21T15:43:38.513Z,2.25
2023-04-21T15:46:12.940Z,4.50
2023-04-21T15:48:41.174Z,3.33
2023-04-21T15:51:09.109Z,3.35
2023-04-21T15:53:37.246Z,3.63
2023-04-21T15:56:04.747Z,6.32
2023-04-21T15:58:31.523Z,3.92
2023-04-21T16:00:58.156Z,4.45
2023-04-21T16:03:24.905Z,4.25
2023-04-21T16:05:52.065Z,3.47
2023-04-21T16:08:19.039Z,5.03
2023-04-21T16:10:45.890Z,4.85
2023-04-21T16:13:12.488Z,4.15
2023-04-21T16:15:39.183Z,3.65
2023-04-21T16:18:06.892Z,4.70
2023-04-21T16:20:33.730Z,5.18
2023-04-21T16:23:00.608Z,4.22
2023-04-21T16:25:27.711Z,4.90
2023-04-21T16:27:54.429Z,2.67
2023-04-21T16:30:21.187Z,2.20
2023-04-21T16:32:47.774Z,2.00
2023-04-21T16:35:14.570Z,1.33
2023-04-21T16:37:42.659Z,1.70
2023-04-21T16:40:10.751Z,2.55
2023-04-21T16:42:37.720Z,2.22
2023-04-21T16:45:05.808Z,1.90
2023-04-21T16:47:37.919Z,2.20
2023-04-21T16:50:08.041Z,2.10
2023-04-21T16:52:35.472Z,2.45
2023-04-21T16:55:02.318Z,2.40
2023-04-21T16:57:30.281Z,2.38
2023-04-21T16:59:58.182Z,2.22
2023-04-21T17:02:25.193Z,2.00
2023-04-21T17:04:51.946Z,3.13
2023-04-21T17:07:18.570Z,6.70
2023-04-21T17:09:45.270Z,6.57
2023-04-21T17:12:11.851Z,5.20
2023-04-21T17:14:38.846Z,4.15
2023-04-21T17:17:05.951Z,3.53
2023-04-21T17:19:32.770Z,3.30
2023-04-21T17:21:59.403Z,3.13
2023-04-21T17:24:26.175Z,2.88
2023-04-21T17:26:52.810Z,2.90
2023-04-21T17:29:19.439Z,3.20
2023-04-21T17:31:46.060Z,2.72
2023-04-21T17:34:12.687Z,3.17
2023-04-21T17:36:44.380Z,2.42
2023-04-21T17:39:10.962Z,2.85
2023-04-21T17:41:37.700Z,3.05
2023-04-21T17:44:04.433Z,2.85
2023-04-21T17:46:31.191Z,2.00
2023-04-21T17:48:57.845Z,2.55
2023-04-21T17:51:24.631Z,2.10
2023-04-21T17:53:51.323Z,2.33
2023-04-21T17:56:18.873Z,2.30
2023-04-21T17:58:45.512Z,2.33
2023-04-21T18:01:12.194Z,2.67
2023-04-21T18:03:42.192Z,2.50
2023-04-21T18:06:13.505Z,2.25
2023-04-21T18:08:40.670Z,2.40
2023-04-21T18:11:07.330Z,2.33
2023-04-21T18:13:33.965Z,2.63
2023-04-21T18:16:00.580Z,2.65
2023-04-21T18:18:27.310Z,2.28
2023-04-21T18:20:54.107Z,2.70
2023-04-21T18:23:21.420Z,2.30
2023-04-21T18:25:48.009Z,2.33
2023-04-21T18:28:14.612Z,2.70
2023-04-21T18:30:41.430Z,2.50
2023-04-21T18:33:11.429Z,2.70
2023-04-21T18:35:38.479Z,2.60
2023-04-21T18:38:07.732Z,2.90
2023-04-21T18:40:36.875Z,2.40
2023-04-21T18:43:05.245Z,2.97
2023-04-21T18:45:32.123Z,2.78
2023-04-21T18:47:58.822Z,3.75
2023-04-21T18:50:27.421Z,3.10
2023-04-21T18:52:55.002Z,3.35
2023-04-21T18:55:21.823Z,3.00
2023-04-21T18:57:48.438Z,3.00
2023-04-21T19:00:15.336Z,3.03
2023-04-21T19:02:43.071Z,4.30
2023-04-21T19:05:09.909Z,3.30
2023-04-21T19:07:36.596Z,3.22
2023-04-21T19:10:03.275Z,3.22
2023-04-21T19:12:29.953Z,3.42
2023-04-21T19:14:56.657Z,3.45
2023-04-21T19:17:23.297Z,3.47
2023-04-21T19:19:50.965Z,3.67
2023-04-21T19:22:17.891Z,3.67
2023-04-21T19:24:44.462Z,2.47
2023-04-21T19:27:11.093Z,3.08
2023-04-21T19:29:37.756Z,2.63
2023-04-21T19:32:04.538Z,3.05
2023-04-21T19:34:31.230Z,2.92
2023-04-21T19:36:57.868Z,2.60
2023-04-21T19:39:24.454Z,2.92
2023-04-21T19:41:51.093Z,1.38
2023-04-21T19:44:17.720Z,3.00
2023-04-21T19:46:44.345Z,2.95
2023-04-21T19:49:12.934Z,2.90
2023-04-21T19:51:40.914Z,3.00
2023-04-21T19:54:11.991Z,2.88
2023-04-21T19:56:39.693Z,2.80
2023-04-21T19:59:06.552Z,3.25
2023-04-21T20:01:34.170Z,2.95
2023-04-21T20:04:01.565Z,1.83
2023-04-21T20:06:28.585Z,18.02
2023-04-21T20:08:55.745Z,5.00
2023-04-21T20:11:23.112Z,2.70
2023-04-21T20:13:50.087Z,2.28
2023-04-21T20:16:18.174Z,2.05
2023-04-21T20:18:44.879Z,2.40
2023-04-21T20:21:11.452Z,2.00
2023-04-21T20:23:38.054Z,2.60
2023-04-21T20:26:04.713Z,2.42
2023-04-21T20:28:32.337Z,4.93
2023-04-21T20:30:59.011Z,2.40
2023-04-21T20:33:25.884Z,2.90
2023-04-21T20:35:52.563Z,3.22
2023-04-21T20:38:19.233Z,7.38
2023-04-21T20:40:49.990Z,10.38
2023-04-21T20:43:16.943Z,9.40
2023-04-21T20:45:43.626Z,20.00
2023-04-21T20:48:10.258Z,3.60
2023-04-21T20:50:36.965Z,8.13
2023-04-21T20:53:03.844Z,3.78
2023-04-21T20:55:30.885Z,2.85
2023-04-21T20:57:57.502Z,2.67
2023-04-21T21:00:24.273Z,2.67
2023-04-21T21:02:51.067Z,2.58
2023-04-21T21:05:17.866Z,2.50
2023-04-21T21:07:44.687Z,2.17
2023-04-21T21:10:11.379Z,3.40
2023-04-21T21:12:38.069Z,4.40
2023-04-21T21:15:05.370Z,10.88
2023-04-21T21:17:32.045Z,17.27
2023-04-21T21:19:58.682Z,7.85
2023-04-21T21:22:25.372Z,4.43
2023-04-21T21:24:51.982Z,3.28
2023-04-21T21:27:18.627Z,2.85
2023-04-21T21:29:45.435Z,2.63
2023-04-21T21:32:12.057Z,2.92
2023-04-21T21:34:38.704Z,2.80
2023-04-21T21:37:05.442Z,3.03
2023-04-21T21:39:32.080Z,2.88
2023-04-21T21:41:58.654Z,2.83
2023-04-21T21:44:25.395Z,2.80
2023-04-21T21:46:52.127Z,3.20
2023-04-21T21:49:18.812Z,4.32
2023-04-21T21:51:45.454Z,3.63
2023-04-21T21:54:12.008Z,3.00
2023-04-21T21:56:38.631Z,3.22
2023-04-21T21:59:06.216Z,3.00
2023-04-21T22:01:32.860Z,3.20
2023-04-21T22:03:59.597Z,3.35
2023-04-21T22:06:26.918Z,3.08
2023-04-21T22:08:53.608Z,3.58
2023-04-21T22:11:20.568Z,3.67
2023-04-21T22:13:47.172Z,3.17
2023-04-21T22:16:13.899Z,3.40
2023-04-21T22:18:40.803Z,3.70
2023-04-21T22:21:07.497Z,3.20
2023-04-21T22:23:34.127Z,3.25
2023-04-21T22:26:00.926Z,3.35
2023-04-21T22:28:27.626Z,2.97
2023-04-21T22:30:54.266Z,2.83
2023-04-21T22:33:20.871Z,2.92
2023-04-21T22:35:47.432Z,3.50
2023-04-21T22:38:14.050Z,3.08
2023-04-21T22:40:40.772Z,3.10
2023-04-21T22:43:07.484Z,3.13
2023-04-21T22:45:34.487Z,3.08
2023-04-21T22:48:01.333Z,3.15
2023-04-21T22:50:28.004Z,3.30
2023-04-21T22:52:54.604Z,3.22
2023-04-21T22:55:21.212Z,4.38
2023-04-21T22:57:48.340Z,4.00
2023-04-21T23:00:15.299Z,4.00
2023-04-21T23:02:42.027Z,3.88
2023-04-21T23:05:09.207Z,3.70
2023-04-21T23:07:36.654Z,3.72
2023-04-21T23:10:03.715Z,3.40
2023-04-21T23:12:30.332Z,3.40
2023-04-21T23:14:56.960Z,3.10
2023-04-21T23:17:23.654Z,3.22
2023-04-21T23:19:50.390Z,3.00
2023-04-21T23:22:17.006Z,3.53
2023-04-21T23:24:43.680Z,2.97
2023-04-21T23:27:10.250Z,4.18
2023-04-21T23:29:37.262Z,4.32
2023-04-21T23:32:04.153Z,3.30
2023-04-21T23:34:31.425Z,3.10
2023-04-21T23:36:58.049Z,3.80
2023-04-21T23:39:24.639Z,3.90
2023-04-21T23:41:51.258Z,3.33
2023-04-21T23:44:18.007Z,2.97
2023-04-21T23:46:44.599Z,3.78
2023-04-21T23:49:11.489Z,3.30
2023-04-21T23:51:38.236Z,3.75
2023-04-21T23:54:04.895Z,3.58
2023-04-21T23:56:31.579Z,3.55
2023-04-21T23:58:58.342Z,3.40
